createdAt,value
2023-07-10T00:00:41.805Z,961.98
2023-07-10T00:01:41.551Z,961.94
2023-07-10T00:02:41.344Z,961.96
2023-07-10T00:03:41.376Z,961.95
2023-07-10T00:04:41.307Z,961.96
2023-07-10T00:05:43.186Z,961.94
2023-07-10T00:06:43.909Z,961.97
2023-07-10T00:07:43.887Z,961.97
2023-07-10T00:08:45.354Z,961.94
2023-07-10T00:09:41.304Z,961.94
2023-07-10T00:10:45.835Z,961.93
2023-07-10T00:11:43.839Z,961.94
2023-07-10T00:12:41.222Z,961.95
2023-07-10T00:13:41.282Z,961.91
2023-07-10T00:14:43.940Z,961.87
2023-07-10T00:15:41.869Z,961.89
2023-07-10T00:16:41.492Z,961.88
2023-07-10T00:17:41.275Z,961.95
2023-07-10T00:18:41.880Z,961.92
2023-07-10T00:19:42.847Z,961.92
2023-07-10T00:20:41.988Z,961.91
2023-07-10T00:21:41.104Z,961.94
2023-07-10T00:22:43.728Z,961.92
2023-07-10T00:23:41.295Z,961.89
2023-07-10T00:24:41.488Z,961.87
2023-07-10T00:25:41.689Z,961.87
2023-07-10T00:26:43.706Z,961.91
2023-07-10T00:27:41.027Z,961.91
2023-07-10T00:28:43.197Z,961.90
2023-07-10T00:29:41.709Z,961.86
2023-07-10T00:30:41.456Z,961.88
2023-07-10T00:31:44.113Z,961.88
2023-07-10T00:32:40.996Z,961.93
2023-07-10T00:33:42.249Z,961.87
2023-07-10T00:34:43.703Z,961.90
2023-07-10T00:35:43.608Z,961.94
2023-07-10T00:36:41.416Z,961.93
2023-07-10T00:37:41.158Z,961.95
2023-07-10T00:38:44.076Z,961.91
2023-07-10T00:39:41.127Z,961.90
2023-07-10T00:40:41.280Z,961.88
2023-07-10T00:41:41.142Z,961.85
2023-07-10T00:42:43.976Z,961.87
2023-07-10T00:43:42.977Z,961.90
2023-07-10T00:44:41.129Z,961.82
2023-07-10T00:45:41.163Z,961.80
2023-07-10T00:46:42.917Z,961.85
2023-07-10T00:47:41.763Z,961.84
2023-07-10T00:48:41.448Z,961.86
2023-07-10T00:49:41.931Z,961.82
2023-07-10T00:50:40.977Z,961.83
2023-07-10T00:51:43.062Z,961.84
2023-07-10T00:52:43.127Z,961.81
2023-07-10T00:53:41.171Z,961.84
2023-07-10T00:54:43.039Z,961.81
2023-07-10T00:55:41.047Z,961.79
2023-07-10T00:56:41.655Z,961.82
2023-07-10T00:57:45.300Z,961.80
2023-07-10T00:58:50.674Z,961.76
2023-07-10T00:59:41.127Z,961.80
2023-07-10T01:00:43.900Z,961.80
2023-07-10T01:01:41.150Z,961.77
2023-07-10T01:02:42.558Z,961.78
2023-07-10T01:03:43.303Z,961.77
2023-07-10T01:04:43.670Z,961.79
2023-07-10T01:05:40.886Z,961.72
2023-07-10T01:06:41.748Z,961.73
2023-07-10T01:07:39.919Z,961.74
2023-07-10T01:08:46.385Z,961.70
2023-07-10T01:09:42.346Z,961.70
2023-07-10T01:10:40.645Z,961.70
2023-07-10T01:11:43.726Z,961.69
2023-07-10T01:12:40.661Z,961.75
2023-07-10T01:13:42.451Z,961.68
2023-07-10T01:14:41.359Z,961.75
2023-07-10T01:15:41.570Z,961.75
2023-07-10T01:16:41.021Z,961.75
2023-07-10T01:17:40.734Z,961.72
2023-07-10T01:18:40.743Z,961.74
2023-07-10T01:19:40.730Z,961.72
2023-07-10T01:20:43.675Z,961.72
2023-07-10T01:21:41.379Z,961.73
2023-07-10T01:22:41.488Z,961.70
2023-07-10T01:23:40.570Z,961.69
2023-07-10T01:24:40.989Z,961.73
2023-07-10T01:25:40.630Z,961.70
2023-07-10T01:26:40.554Z,961.71
2023-07-10T01:27:40.907Z,961.70
2023-07-10T01:28:41.416Z,961.70
2023-07-10T01:29:40.993Z,961.68
2023-07-10T01:30:40.727Z,961.68
2023-07-10T01:31:41.355Z,961.68
2023-07-10T01:32:40.648Z,961.69
2023-07-10T01:33:42.378Z,961.64
2023-07-10T01:34:42.332Z,961.62
2023-07-10T01:35:41.456Z,961.61
2023-07-10T01:36:44.382Z,961.66
2023-07-10T01:37:43.977Z,961.62
2023-07-10T01:38:41.485Z,961.62
2023-07-10T01:39:43.273Z,961.60
2023-07-10T01:40:46.449Z,961.60
2023-07-10T01:41:40.518Z,961.54
2023-07-10T01:42:40.453Z,961.56
2023-07-10T01:43:40.828Z,961.52
2023-07-10T01:44:41.588Z,961.50
2023-07-10T01:45:42.259Z,961.50
2023-07-10T01:46:40.882Z,961.47
2023-07-10T01:47:40.503Z,961.45
2023-07-10T01:48:40.542Z,961.46
2023-07-10T01:49:42.945Z,961.47
2023-07-10T01:50:40.325Z,961.46
2023-07-10T01:51:40.795Z,961.47
2023-07-10T01:52:40.436Z,961.45
2023-07-10T01:53:40.637Z,961.52
2023-07-10T01:54:41.644Z,961.48
2023-07-10T01:55:40.421Z,961.51
2023-07-10T01:56:42.279Z,961.48
2023-07-10T01:57:41.960Z,961.54
2023-07-10T01:58:40.225Z,961.57
2023-07-10T01:59:39.292Z,961.56
2023-07-10T02:00:40.524Z,961.55
2023-07-10T02:01:42.626Z,961.57
2023-07-10T02:02:42.036Z,961.62
2023-07-10T02:03:40.341Z,961.59
2023-07-10T02:04:40.873Z,961.64
2023-07-10T02:05:40.048Z,961.67
2023-07-10T02:08:11.611Z,961.63
2023-07-10T02:08:17.910Z,961.59
2023-07-10T02:09:17.915Z,961.65
2023-07-10T02:10:18.407Z,961.63
2023-07-10T02:11:17.960Z,961.69
2023-07-10T02:12:18.402Z,961.72
2023-07-10T02:13:19.053Z,961.75
2023-07-10T02:14:20.192Z,961.70
2023-07-10T02:15:17.530Z,961.75
2023-07-10T02:16:17.515Z,961.79
2023-07-10T02:17:17.624Z,961.77
2023-07-10T02:18:17.487Z,961.82
2023-07-10T02:19:17.534Z,961.79
2023-07-10T02:20:20.203Z,961.86
2023-07-10T02:21:18.203Z,961.82
2023-07-10T02:22:17.494Z,961.87
2023-07-10T02:23:17.427Z,961.84
2023-07-10T02:24:17.518Z,961.87
2023-07-10T02:25:17.404Z,961.86
2023-07-10T02:26:17.394Z,961.90
2023-07-10T02:27:17.380Z,961.92
2023-07-10T02:28:17.375Z,961.96
2023-07-10T02:29:17.403Z,961.95
2023-07-10T02:30:17.337Z,961.99
2023-07-10T02:31:17.385Z,962.05
2023-07-10T02:32:17.356Z,962.03
2023-07-10T02:33:17.403Z,962.03
2023-07-10T02:34:17.315Z,962.01
2023-07-10T02:35:17.376Z,962.04
2023-07-10T02:36:17.273Z,962.02
2023-07-10T02:37:17.281Z,962.01
2023-07-10T02:38:17.287Z,962.00
2023-07-10T02:39:17.328Z,962.05
2023-07-10T02:40:17.223Z,962.01
2023-07-10T02:41:17.240Z,962.01
2023-07-10T02:42:17.227Z,961.98
2023-07-10T02:43:17.237Z,962.01
2023-07-10T02:44:17.197Z,962.01
2023-07-10T02:45:17.181Z,962.05
2023-07-10T02:46:17.277Z,962.01
2023-07-10T02:47:17.206Z,962.05
2023-07-10T02:48:21.758Z,962.02
2023-07-10T02:49:17.402Z,962.01
2023-07-10T02:50:17.161Z,962.01
2023-07-10T02:51:20.006Z,962.01
2023-07-10T02:52:17.135Z,961.99
2023-07-10T02:53:20.647Z,962.00
2023-07-10T02:54:18.705Z,961.96
2023-07-10T02:55:18.147Z,961.93
2023-07-10T02:56:17.435Z,961.92
2023-07-10T02:57:17.105Z,961.94
2023-07-10T02:58:17.121Z,961.95
2023-07-10T02:59:17.046Z,961.91
2023-07-10T03:00:17.020Z,961.88
2023-07-10T03:01:17.087Z,961.89
2023-07-10T03:02:18.673Z,961.85
2023-07-10T03:03:18.706Z,961.76
2023-07-10T03:04:17.790Z,961.76
2023-07-10T03:05:17.378Z,961.71
2023-07-10T03:06:17.094Z,961.69
2023-07-10T03:07:17.012Z,961.71
2023-07-10T03:08:16.947Z,961.68
2023-07-10T03:09:19.543Z,961.69
2023-07-10T03:10:17.735Z,961.69
2023-07-10T03:11:17.011Z,961.69
2023-07-10T03:12:17.291Z,961.66
2023-07-10T03:13:18.990Z,961.69
2023-07-10T03:14:16.888Z,961.61
2023-07-10T03:15:17.569Z,961.60
2023-07-10T03:16:19.548Z,961.63
2023-07-10T03:17:16.855Z,961.61
2023-07-10T03:18:17.241Z,961.62
2023-07-10T03:19:18.206Z,961.66
2023-07-10T03:20:16.821Z,961.64
2023-07-10T03:21:16.870Z,961.65
2023-07-10T03:22:16.813Z,961.62
2023-07-10T03:23:18.656Z,961.61
2023-07-10T03:24:17.013Z,961.59
2023-07-10T03:25:16.789Z,961.59
2023-07-10T03:26:16.831Z,961.63
2023-07-10T03:27:17.160Z,961.63
2023-07-10T03:28:16.974Z,961.63
2023-07-10T03:29:16.728Z,961.63
2023-07-10T03:30:16.735Z,961.60
2023-07-10T03:31:16.764Z,961.65
2023-07-10T03:32:16.705Z,961.62
2023-07-10T03:33:19.337Z,961.63
2023-07-10T03:34:16.654Z,961.63
2023-07-10T03:35:21.269Z,961.64
2023-07-10T03:36:16.893Z,961.61
2023-07-10T03:37:16.641Z,961.64
2023-07-10T03:38:16.616Z,961.62
2023-07-10T03:39:16.609Z,961.60
2023-07-10T03:40:16.602Z,961.61
2023-07-10T03:41:16.623Z,961.65
2023-07-10T03:42:16.574Z,961.62
2023-07-10T03:43:16.806Z,961.59
2023-07-10T03:44:17.994Z,961.68
2023-07-10T03:45:16.556Z,961.65
2023-07-10T03:46:16.593Z,961.61
2023-07-10T03:47:16.773Z,961.65
2023-07-10T03:48:16.505Z,961.68
2023-07-10T03:49:19.959Z,961.70
2023-07-10T03:50:16.985Z,961.71
2023-07-10T03:51:16.709Z,961.73
2023-07-10T03:52:16.846Z,961.77
2023-07-10T03:53:16.503Z,961.74
2023-07-10T03:54:19.119Z,961.72
2023-07-10T03:55:17.199Z,961.69
2023-07-10T03:56:16.460Z,961.69
2023-07-10T03:57:16.423Z,961.74
2023-07-10T03:58:17.049Z,961.74
2023-07-10T03:59:20.772Z,961.78
2023-07-10T04:00:16.387Z,961.72
2023-07-10T04:01:16.452Z,961.77
2023-07-10T04:02:16.352Z,961.75
2023-07-10T04:03:16.461Z,961.75
2023-07-10T04:04:16.503Z,961.73
2023-07-10T04:05:18.151Z,961.66
2023-07-10T04:06:17.273Z,961.64
2023-07-10T04:07:16.432Z,961.66
2023-07-10T04:08:18.893Z,961.66
2023-07-10T04:09:16.525Z,961.72
2023-07-10T04:10:16.286Z,961.70
2023-07-10T04:11:16.366Z,961.71
2023-07-10T04:12:16.274Z,961.72
2023-07-10T04:13:17.148Z,961.76
2023-07-10T04:14:17.266Z,961.76
2023-07-10T04:15:16.260Z,961.79
2023-07-10T04:16:16.215Z,961.78
2023-07-10T04:17:16.186Z,961.79
2023-07-10T04:18:16.195Z,961.83
2023-07-10T04:19:16.897Z,961.86
2023-07-10T04:20:16.414Z,961.84
2023-07-10T04:21:16.561Z,961.85
2023-07-10T04:22:16.482Z,961.83
2023-07-10T04:23:18.039Z,961.84
2023-07-10T04:24:16.366Z,961.81
2023-07-10T04:25:18.781Z,961.78
2023-07-10T04:26:16.366Z,961.76
2023-07-10T04:27:18.533Z,961.77
2023-07-10T04:28:16.334Z,961.78
2023-07-10T04:29:16.059Z,961.76
2023-07-10T04:30:16.267Z,961.77
2023-07-10T04:31:16.258Z,961.78
2023-07-10T04:32:17.657Z,961.82
2023-07-10T04:33:16.034Z,961.81
2023-07-10T04:34:16.104Z,961.83
2023-07-10T04:35:16.548Z,961.79
2023-07-10T04:36:15.961Z,961.79
2023-07-10T04:37:17.219Z,961.82
2023-07-10T04:38:15.994Z,961.78
2023-07-10T04:39:15.955Z,961.78
2023-07-10T04:40:15.999Z,961.79
2023-07-10T04:41:15.939Z,961.80
2023-07-10T04:42:17.326Z,961.84
2023-07-10T04:43:15.939Z,961.84
2023-07-10T04:44:15.950Z,961.86
2023-07-10T04:45:17.605Z,961.91
2023-07-10T04:46:22.163Z,961.92
2023-07-10T04:47:15.956Z,961.89
2023-07-10T04:48:15.950Z,961.89
2023-07-10T04:49:16.113Z,961.89
2023-07-10T04:50:15.855Z,961.88
2023-07-10T04:51:15.906Z,961.91
2023-07-10T04:52:16.033Z,961.87
2023-07-10T04:53:15.781Z,961.90
2023-07-10T04:54:16.070Z,961.89
2023-07-10T04:55:15.861Z,961.87
2023-07-10T04:56:17.822Z,961.88
2023-07-10T04:57:16.678Z,961.91
2023-07-10T04:58:15.764Z,961.96
2023-07-10T04:59:17.116Z,961.98
2023-07-10T05:00:15.798Z,961.98
2023-07-10T05:01:15.707Z,961.92
2023-07-10T05:02:15.712Z,961.90
2023-07-10T05:03:15.717Z,961.89
2023-07-10T05:04:20.421Z,961.91
2023-07-10T05:05:15.669Z,961.89
2023-07-10T05:06:15.678Z,961.89
2023-07-10T05:07:15.674Z,961.91
2023-07-10T05:08:15.643Z,961.90
2023-07-10T05:09:15.607Z,961.93
2023-07-10T05:10:15.616Z,961.96
2023-07-10T05:11:15.618Z,961.95
2023-07-10T05:12:16.224Z,961.91
2023-07-10T05:13:15.579Z,961.95
2023-07-10T05:14:15.644Z,961.97
2023-07-10T05:15:16.559Z,961.92
2023-07-10T05:16:15.679Z,961.93
2023-07-10T05:17:15.513Z,961.88
2023-07-10T05:18:15.587Z,961.89
2023-07-10T05:19:15.740Z,961.88
2023-07-10T05:20:15.556Z,961.90
2023-07-10T05:21:16.980Z,961.94
2023-07-10T05:22:15.507Z,961.98
2023-07-10T05:23:17.207Z,961.98
2023-07-10T05:24:17.998Z,962.04
2023-07-10T05:25:15.451Z,962.04
2023-07-10T05:26:15.483Z,962.01
2023-07-10T05:27:15.427Z,962.05
2023-07-10T05:28:15.435Z,962.01
2023-07-10T05:29:16.747Z,961.98
2023-07-10T05:30:15.442Z,962.01
2023-07-10T05:31:15.470Z,962.08
2023-07-10T05:32:16.041Z,962.08
2023-07-10T05:33:17.153Z,962.08
2023-07-10T05:34:15.389Z,962.12
2023-07-10T05:35:15.495Z,962.13
2023-07-10T05:36:15.315Z,962.14
2023-07-10T05:37:15.566Z,962.15
2023-07-10T05:38:17.011Z,962.11
2023-07-10T05:39:15.356Z,962.12
2023-07-10T05:40:17.226Z,962.10
2023-07-10T05:41:15.348Z,962.08
2023-07-10T05:42:15.341Z,962.09
2023-07-10T05:43:16.044Z,962.10
2023-07-10T05:44:18.706Z,962.11
2023-07-10T05:45:15.289Z,962.08
2023-07-10T05:46:17.844Z,962.11
2023-07-10T05:47:16.234Z,962.11
2023-07-10T05:48:17.934Z,962.09
2023-07-10T05:49:15.483Z,962.09
2023-07-10T05:50:15.731Z,962.09
2023-07-10T05:51:15.454Z,962.08
2023-07-10T05:52:16.244Z,962.06
2023-07-10T05:53:15.529Z,962.11
2023-07-10T05:54:16.745Z,962.09
2023-07-10T05:55:15.146Z,962.06
2023-07-10T05:56:15.136Z,962.08
2023-07-10T05:57:15.085Z,962.04
2023-07-10T05:58:17.075Z,962.06
2023-07-10T05:59:16.832Z,962.04
2023-07-10T06:00:15.238Z,961.99
2023-07-10T06:01:15.084Z,962.04
2023-07-10T06:02:15.105Z,962.00
2023-07-10T06:03:15.173Z,962.10
2023-07-10T06:04:15.105Z,962.09
2023-07-10T06:05:16.757Z,962.08
2023-07-10T06:06:15.034Z,962.10
2023-07-10T06:07:14.989Z,962.11
2023-07-10T06:08:14.959Z,962.16
2023-07-10T06:09:14.949Z,962.20
2023-07-10T06:10:14.968Z,962.21
2023-07-10T06:11:14.930Z,962.22
2023-07-10T06:12:14.986Z,962.27
2023-07-10T06:13:14.953Z,962.29
2023-07-10T06:14:17.609Z,962.33
2023-07-10T06:15:17.638Z,962.34
2023-07-10T06:16:15.005Z,962.30
2023-07-10T06:17:15.639Z,962.35
2023-07-10T06:18:17.494Z,962.39
2023-07-10T06:19:14.866Z,962.42
2023-07-10T06:20:14.826Z,962.48
2023-07-10T06:21:14.851Z,962.51
2023-07-10T06:22:14.831Z,962.51
2023-07-10T06:23:14.790Z,962.52
2023-07-10T06:24:17.155Z,962.53
2023-07-10T06:25:14.779Z,962.56
2023-07-10T06:26:16.517Z,962.61
2023-07-10T06:27:14.756Z,962.58
2023-07-10T06:28:14.741Z,962.65
2023-07-10T06:29:14.751Z,962.60
2023-07-10T06:30:14.735Z,962.63
2023-07-10T06:31:14.851Z,962.62
2023-07-10T06:32:14.736Z,962.66
2023-07-10T06:33:14.756Z,962.67
2023-07-10T06:34:14.716Z,962.66
2023-07-10T06:35:15.254Z,962.73
2023-07-10T06:36:14.672Z,962.70
2023-07-10T06:37:14.661Z,962.78
2023-07-10T06:38:14.667Z,962.75
2023-07-10T06:39:15.563Z,962.76
2023-07-10T06:40:14.690Z,962.75
2023-07-10T06:41:15.723Z,962.72
2023-07-10T06:42:14.617Z,962.79
2023-07-10T06:43:14.588Z,962.77
2023-07-10T06:44:14.623Z,962.74
2023-07-10T06:45:14.600Z,962.78
2023-07-10T06:46:14.616Z,962.74
2023-07-10T06:47:14.559Z,962.77
2023-07-10T06:48:14.632Z,962.80
2023-07-10T06:49:14.547Z,962.82
2023-07-10T06:50:16.822Z,962.78
2023-07-10T06:51:14.551Z,962.75
2023-07-10T06:52:15.170Z,962.71
2023-07-10T06:53:25.676Z,962.65
2023-07-10T06:54:17.203Z,962.64
2023-07-10T06:55:14.457Z,962.62
2023-07-10T06:56:14.494Z,962.61
2023-07-10T06:57:14.440Z,962.63
2023-07-10T06:58:14.486Z,962.63
2023-07-10T06:59:15.057Z,962.62
2023-07-10T07:00:15.318Z,962.59
2023-07-10T07:01:14.494Z,962.63
2023-07-10T07:02:14.396Z,962.62
2023-07-10T07:03:14.791Z,962.60
2023-07-10T07:04:14.411Z,962.61
2023-07-10T07:05:15.184Z,962.63
2023-07-10T07:06:15.182Z,962.67
2023-07-10T07:07:14.377Z,962.66
2023-07-10T07:08:14.701Z,962.70
2023-07-10T07:09:15.182Z,962.72
2023-07-10T07:11:54.956Z,962.82
2023-07-10T07:13:59.126Z,962.85
2023-07-10T07:14:12.411Z,962.83
2023-07-10T07:15:04.486Z,962.86
2023-07-10T07:16:04.788Z,962.76
2023-07-10T07:17:04.481Z,962.80
2023-07-10T07:18:12.981Z,962.82
2023-07-10T07:19:11.920Z,962.77
2023-07-10T07:20:04.421Z,962.73
2023-07-10T07:21:05.905Z,962.75
2023-07-10T07:22:04.476Z,962.73
2023-07-10T07:23:07.120Z,962.69
2023-07-10T07:25:53.716Z,962.71
2023-07-10T07:26:54.415Z,962.78
2023-07-10T07:27:54.005Z,962.88
2023-07-10T07:32:23.185Z,963.03
2023-07-10T07:33:23.428Z,963.08
2023-07-10T07:34:23.518Z,963.00
2023-07-10T07:38:02.048Z,963.02
2023-07-10T07:39:02.922Z,963.04
2023-07-10T07:40:02.348Z,963.12
2023-07-10T07:43:08.973Z,963.14
2023-07-10T07:44:07.311Z,963.25
2023-07-10T07:45:07.282Z,963.32
2023-07-10T07:46:08.091Z,963.35
2023-07-10T07:47:07.253Z,963.41
2023-07-10T07:48:08.497Z,963.42
2023-07-10T07:49:09.194Z,963.44
2023-07-10T07:51:19.821Z,963.41
2023-07-10T07:52:19.837Z,963.46
2023-07-10T07:53:19.995Z,963.44
2023-07-10T07:54:31.178Z,963.51
2023-07-10T07:55:19.827Z,963.48
2023-07-10T07:56:19.813Z,963.37
2023-07-10T07:57:19.876Z,963.39
2023-07-10T07:58:19.767Z,963.36
2023-07-10T07:59:28.159Z,963.43
2023-07-10T08:00:31.861Z,963.45
2023-07-10T08:01:19.753Z,963.39
2023-07-10T08:02:20.438Z,963.36
2023-07-10T08:03:21.896Z,963.40
2023-07-10T08:04:19.823Z,963.46
2023-07-10T08:05:33.697Z,963.55
2023-07-10T08:08:17.141Z,963.65
2023-07-10T08:09:17.129Z,963.70
2023-07-10T08:10:16.522Z,963.75
2023-07-10T08:12:51.873Z,963.68
2023-07-10T08:13:52.036Z,963.68
2023-07-10T08:17:07.199Z,963.61
2023-07-10T08:19:49.842Z,963.60
2023-07-10T08:20:48.106Z,963.65
2023-07-10T08:21:48.075Z,963.65
2023-07-10T08:22:48.074Z,963.72
2023-07-10T08:23:48.059Z,963.81
2023-07-10T08:24:48.030Z,963.86
2023-07-10T08:25:48.019Z,963.87
2023-07-10T08:26:48.285Z,963.86
2023-07-10T08:27:48.815Z,963.85
2023-07-10T08:28:47.971Z,963.89
2023-07-10T08:29:47.986Z,963.87
2023-07-10T08:30:56.354Z,963.95
2023-07-10T08:31:47.967Z,964.00
2023-07-10T08:32:48.009Z,964.06
2023-07-10T08:33:47.919Z,964.15
2023-07-10T08:34:47.900Z,964.30
2023-07-10T08:35:47.939Z,964.36
2023-07-10T08:36:48.709Z,964.44
2023-07-10T08:37:47.905Z,964.46
2023-07-10T08:38:48.838Z,964.51
2023-07-10T08:39:47.857Z,964.60
2023-07-10T08:40:47.850Z,964.60
2023-07-10T08:41:47.847Z,964.54
2023-07-10T08:42:47.823Z,964.58
2023-07-10T08:43:47.853Z,964.63
2023-07-10T08:44:47.973Z,964.70
2023-07-10T08:45:47.887Z,964.68
2023-07-10T08:46:47.853Z,964.65
2023-07-10T08:47:47.926Z,964.66
2023-07-10T08:48:47.734Z,964.82
2023-07-10T08:49:47.750Z,964.90
2023-07-10T08:50:47.712Z,964.95
2023-07-10T08:51:47.756Z,965.00
2023-07-10T08:52:47.758Z,964.91
2023-07-10T08:53:47.763Z,964.93
2023-07-10T08:54:47.692Z,964.93
2023-07-10T08:55:47.670Z,965.00
2023-07-10T08:56:47.662Z,964.94
2023-07-10T08:57:47.665Z,964.94
2023-07-10T08:58:47.695Z,964.90
2023-07-10T08:59:47.642Z,964.84
2023-07-10T09:00:47.726Z,964.89
2023-07-10T09:01:47.709Z,965.04
2023-07-10T09:02:47.630Z,965.01
2023-07-10T09:03:47.654Z,965.04
2023-07-10T09:04:47.566Z,964.94
2023-07-10T09:05:47.672Z,964.91
2023-07-10T09:06:47.838Z,964.84
2023-07-10T09:07:47.546Z,964.80
2023-07-10T09:08:47.563Z,964.77
2023-07-10T09:09:47.561Z,964.78
2023-07-10T09:10:47.680Z,964.74
2023-07-10T09:11:47.824Z,964.64
2023-07-10T09:12:47.530Z,964.59
2023-07-10T09:13:47.522Z,964.47
2023-07-10T09:14:47.471Z,964.46
2023-07-10T09:15:47.475Z,964.41
2023-07-10T09:16:47.522Z,964.32
2023-07-10T09:17:47.517Z,964.25
2023-07-10T09:18:47.501Z,964.27
2023-07-10T09:19:47.412Z,964.27
2023-07-10T09:20:47.492Z,964.18
2023-07-10T09:21:47.809Z,964.19
2023-07-10T09:22:47.384Z,964.21
2023-07-10T09:23:49.401Z,964.27
2023-07-10T09:24:47.360Z,964.21
2023-07-10T09:25:47.346Z,964.22
2023-07-10T09:26:47.326Z,964.28
2023-07-10T09:27:47.332Z,964.33
2023-07-10T09:28:47.353Z,964.37
2023-07-10T09:29:47.393Z,964.47
2023-07-10T09:30:47.351Z,964.39
2023-07-10T09:31:47.488Z,964.32
2023-07-10T09:32:47.308Z,964.23
2023-07-10T09:33:47.270Z,964.14
2023-07-10T09:34:47.242Z,964.05
2023-07-10T09:35:47.279Z,963.94
2023-07-10T09:36:47.215Z,963.76
2023-07-10T09:37:47.238Z,963.64
2023-07-10T09:38:47.283Z,963.67
2023-07-10T09:39:55.764Z,963.81
2023-07-10T09:40:47.401Z,963.98
2023-07-10T09:41:47.209Z,964.06
2023-07-10T09:42:47.202Z,964.06
2023-07-10T09:43:49.384Z,964.04
2023-07-10T09:44:47.169Z,963.98
2023-07-10T09:45:47.796Z,963.95
2023-07-10T09:46:50.625Z,963.90
2023-07-10T09:48:41.553Z,963.66
2023-07-10T09:49:42.652Z,963.60
2023-07-10T09:51:01.619Z,963.50
2023-07-10T09:51:42.592Z,963.50
2023-07-10T09:52:42.529Z,963.42
2023-07-10T09:53:42.541Z,963.43
2023-07-10T09:54:43.227Z,963.49
2023-07-10T09:57:54.717Z,963.50
2023-07-10T09:59:02.710Z,963.54
2023-07-10T09:59:52.759Z,963.48
2023-07-10T10:00:52.634Z,963.51
2023-07-10T10:01:52.693Z,963.56
2023-07-10T10:02:52.713Z,963.57
2023-07-10T10:04:07.306Z,963.61
2023-07-10T10:04:52.614Z,963.60
2023-07-10T10:05:52.647Z,963.68
2023-07-10T10:07:02.264Z,963.66
2023-07-10T10:08:12.234Z,963.68
2023-07-10T10:08:52.741Z,963.65
2023-07-10T10:09:52.759Z,963.65
2023-07-10T10:10:52.602Z,963.71
2023-07-10T10:11:52.634Z,963.68
2023-07-10T10:14:45.000Z,963.68
2023-07-10T10:15:25.120Z,963.66
2023-07-10T10:16:25.042Z,963.63
2023-07-10T10:17:37.018Z,963.63
2023-07-10T10:18:25.126Z,963.70
2023-07-10T10:19:25.031Z,963.74
2023-07-10T10:20:25.959Z,963.67
2023-07-10T10:21:24.971Z,963.68
2023-07-10T10:22:25.467Z,963.69
2023-07-10T10:23:25.032Z,963.78
2023-07-10T10:24:25.010Z,963.81
2023-07-10T10:25:25.854Z,963.82
2023-07-10T10:26:24.914Z,963.86
2023-07-10T10:27:24.970Z,963.85
2023-07-10T10:28:24.919Z,963.90
2023-07-10T10:29:25.824Z,963.94
2023-07-10T10:30:24.884Z,963.89
2023-07-10T10:31:24.920Z,963.88
2023-07-10T10:32:24.862Z,963.87
2023-07-10T10:33:24.986Z,963.86
2023-07-10T10:34:24.858Z,963.87
2023-07-10T10:35:24.871Z,963.87
2023-07-10T10:36:24.925Z,963.87
2023-07-10T10:37:24.864Z,963.84
2023-07-10T10:38:24.821Z,963.86
2023-07-10T10:39:24.773Z,963.90
2023-07-10T10:40:24.770Z,963.89
2023-07-10T10:41:24.780Z,963.89
2023-07-10T10:42:24.930Z,963.87
2023-07-10T10:43:25.333Z,963.90
2023-07-10T10:44:24.733Z,963.91
2023-07-10T10:45:24.736Z,963.92
2023-07-10T10:46:24.778Z,963.94
2023-07-10T10:47:24.757Z,963.97
2023-07-10T10:48:24.691Z,963.99
2023-07-10T10:49:24.770Z,963.99
2023-07-10T10:50:24.684Z,963.99
2023-07-10T10:51:24.684Z,964.02
2023-07-10T10:52:24.627Z,964.07
2023-07-10T10:53:24.647Z,964.07
2023-07-10T10:54:33.499Z,964.05
2023-07-10T10:55:24.669Z,964.05
2023-07-10T10:56:24.614Z,964.01
2023-07-10T10:57:24.580Z,964.02
2023-07-10T10:58:24.630Z,964.03
2023-07-10T10:59:24.586Z,964.04
2023-07-10T11:00:24.552Z,964.03
2023-07-10T11:01:24.594Z,964.02
2023-07-10T11:02:24.634Z,963.99
2023-07-10T11:03:24.677Z,963.99
2023-07-10T11:04:24.571Z,963.97
2023-07-10T11:05:24.595Z,963.96
2023-07-10T11:06:24.587Z,964.03
2023-07-10T11:07:24.488Z,964.00
2023-07-10T11:08:27.550Z,964.00
2023-07-10T11:09:24.637Z,963.97
2023-07-10T11:10:24.481Z,964.01
2023-07-10T11:11:25.333Z,964.00
2023-07-10T11:12:27.113Z,963.97
2023-07-10T11:13:24.511Z,963.91
2023-07-10T11:14:26.637Z,963.91
2023-07-10T11:15:24.408Z,963.89
2023-07-10T11:16:24.609Z,963.87
2023-07-10T11:17:24.684Z,963.89
2023-07-10T11:18:24.366Z,963.81
2023-07-10T11:19:24.425Z,963.83
2023-07-10T11:20:24.430Z,963.85
2023-07-10T11:21:24.357Z,963.82
2023-07-10T11:22:24.348Z,963.82
2023-07-10T11:23:24.627Z,963.80
2023-07-10T11:24:24.630Z,963.75
2023-07-10T11:25:24.890Z,963.68
2023-07-10T11:26:25.558Z,963.73
2023-07-10T11:28:37.951Z,963.62
2023-07-10T11:29:38.139Z,963.63
2023-07-10T11:30:38.164Z,963.63
2023-07-10T11:31:38.065Z,963.58
2023-07-10T11:32:38.145Z,963.60
2023-07-10T11:33:37.949Z,963.51
2023-07-10T11:34:37.932Z,963.48
2023-07-10T11:35:37.900Z,963.51
2023-07-10T11:36:37.880Z,963.48
2023-07-10T11:37:37.845Z,963.46
2023-07-10T11:38:38.385Z,963.44
2023-07-10T11:39:38.105Z,963.40
2023-07-10T11:40:37.818Z,963.36
2023-07-10T11:41:37.820Z,963.37
2023-07-10T11:42:37.792Z,963.37
2023-07-10T11:43:39.719Z,963.34
2023-07-10T11:44:37.818Z,963.35
2023-07-10T11:45:37.753Z,963.29
2023-07-10T11:46:37.774Z,963.29
2023-07-10T11:47:37.809Z,963.28
2023-07-10T11:48:37.913Z,963.27
2023-07-10T11:49:37.719Z,963.25
2023-07-10T11:50:37.731Z,963.31
2023-07-10T11:51:38.428Z,963.32
2023-07-10T11:52:57.070Z,963.32
2023-07-10T11:53:37.681Z,963.28
2023-07-10T11:54:37.944Z,963.27
2023-07-10T11:55:37.950Z,963.26
2023-07-10T11:56:37.755Z,963.14
2023-07-10T11:57:37.866Z,963.13
2023-07-10T11:58:37.665Z,963.12
2023-07-10T11:59:39.418Z,963.10
2023-07-10T12:02:19.811Z,963.08
2023-07-10T12:03:20.762Z,963.03
2023-07-10T12:04:19.660Z,963.05
2023-07-10T12:05:19.631Z,963.02
2023-07-10T12:06:19.622Z,963.03
2023-07-10T12:07:19.620Z,963.02
2023-07-10T12:08:19.602Z,962.93
2023-07-10T12:09:20.898Z,963.00
2023-07-10T12:12:05.192Z,962.92
2023-07-10T12:13:05.220Z,962.90
2023-07-10T12:14:05.178Z,962.91
2023-07-10T12:16:40.656Z,962.94
2023-07-10T12:17:40.307Z,962.94
2023-07-10T12:18:26.654Z,962.89
2023-07-10T12:19:26.599Z,962.92
2023-07-10T12:20:27.120Z,962.83
2023-07-10T12:21:26.497Z,962.81
2023-07-10T12:28:22.990Z,962.77
2023-07-10T12:28:35.131Z,962.76
2023-07-10T12:29:46.801Z,962.79
2023-07-10T12:30:33.766Z,962.75
2023-07-10T12:31:33.708Z,962.72
2023-07-10T12:32:33.809Z,962.69
2023-07-10T12:34:54.706Z,962.79
2023-07-10T12:39:19.146Z,962.76
2023-07-10T12:40:19.357Z,962.78
2023-07-10T12:41:51.163Z,962.81
2023-07-10T12:42:19.284Z,962.79
2023-07-10T12:43:19.270Z,962.81
2023-07-10T12:44:37.165Z,962.75
2023-07-10T12:45:19.274Z,962.79
2023-07-10T12:46:19.306Z,962.76
2023-07-10T12:47:19.339Z,962.75
2023-07-10T12:48:19.322Z,962.70
2023-07-10T12:49:32.683Z,962.64
2023-07-10T12:50:19.229Z,962.65
2023-07-10T12:51:19.753Z,962.62
2023-07-10T12:52:36.274Z,962.62
2023-07-10T12:53:19.155Z,962.62
2023-07-10T12:54:19.158Z,962.58
2023-07-10T12:55:19.210Z,962.56
2023-07-10T12:56:33.183Z,962.56
2023-07-10T12:57:19.133Z,962.54
2023-07-10T13:00:42.648Z,962.56
2023-07-10T13:01:42.940Z,962.50
2023-07-10T13:02:42.208Z,962.53
2023-07-10T13:03:42.331Z,962.60
2023-07-10T13:04:42.172Z,962.56
2023-07-10T13:05:52.660Z,962.53
2023-07-10T13:06:42.124Z,962.59
2023-07-10T13:07:42.104Z,962.53
2023-07-10T13:08:42.100Z,962.59
2023-07-10T13:09:42.451Z,962.56
2023-07-10T13:11:54.703Z,962.47
2023-07-10T13:12:54.781Z,962.48
2023-07-10T13:14:21.146Z,962.44